Flight Track Log - Related Links

Times and Time Zones

All times are in EDT time to prevent confusion due to time zone crossing. See the AAL1529 flight status page for this flight to view local times or setup timezone preferences in your user account.

Time Position Orientation Groundspeed Altitude Reporting Facility
EDT Latitude Longitude Course Direction KTS MPH feet Rate Location/Type
Wed 07:40:16 PM 32.8833 -97.0500 309° West 174 200 1,200  Level Dallas / Fort Worth TRACON
Wed 07:40:41 PM 32.8667 -97.0500 180° South 172 198 2,100 1,906 Climbing Dallas / Fort Worth TRACON
Wed 07:41:41 PM 32.8167 -97.0667 196° South 215 247 3,900 2,000 Climbing Dallas / Fort Worth TRACON
Wed 07:42:00 PM 32.8102 -97.3029 307° West  Level FlightAware Approximate
Wed 07:42:41 PM 32.7667 -97.1167 220° Southwest 251 289 6,100  Level Dallas / Fort Worth TRACON
Wed 07:43:00 PM 32.8798 -97.4113 308° West  Level FlightAware Approximate
Wed 07:43:11 PM 32.7644 -97.1575 266° West 255 293 7,000  Level Fort Worth Center
Wed 07:44:00 PM 32.9511 -97.5184 309° West  Level FlightAware Approximate
Wed 07:44:13 PM 32.7803 -97.2567 281° West 287 330 9,400  Level Fort Worth Center
Wed 07:45:00 PM 33.0226 -97.6254 309° West  Level FlightAware Approximate
Wed 07:45:15 PM 32.8336 -97.3356 309° West 310 357 11,300  Level Fort Worth Center
Wed 07:46:17 PM 32.8994 -97.4356 308° West 357 411 13,100 1,984 Climbing Fort Worth Center
Wed 07:47:19 PM 32.9675 -97.5383 308° West 367 422 15,400 2,032 Climbing Fort Worth Center
Wed 07:48:21 PM 33.0322 -97.6394 307° West 379 436 17,300 1,935 Climbing Fort Worth Center
Wed 07:49:23 PM 33.0944 -97.7436 306° West 386 444 19,400 1,935 Climbing Fort Worth Center
Wed 07:50:25 PM 33.1361 -97.8753 291° West 393 452 21,300 1,548 Climbing Fort Worth Center
Wed 07:51:27 PM 33.1756 -97.9994 291° West 399 459 22,600 1,355 Climbing Fort Worth Center
Wed 07:52:29 PM 33.2114 -98.1189 290° West 406 467 24,100 1,403 Climbing Fort Worth Center
Wed 07:53:31 PM 33.2503 -98.2447 290° West 408 470 25,500 1,306 Climbing Fort Worth Center
Wed 07:54:33 PM 33.2994 -98.4033 290° West 420 483 26,800 1,440 Climbing Fort Worth Center
Wed 07:55:36 PM 33.3403 -98.5339 291° West 414 476 28,500 1,392 Climbing Fort Worth Center
Wed 07:56:38 PM 33.3794 -98.6619 290° West 413 475 29,700 1,210 Climbing Fort Worth Center
Wed 07:57:40 PM 33.4192 -98.7900 290° West 413 475 31,000 1,016 Climbing Fort Worth Center
Wed 07:58:42 PM 33.4581 -98.9153 290° West 407 468 31,800 484 Climbing Fort Worth Center
Wed 07:59:44 PM 33.4958 -99.0425 290° West 406 467 32,000 97 Climbing Fort Worth Center
Wed 08:00:46 PM 33.5703 -99.1861 302° West 430 495 32,000  Level Fort Worth Center
Wed 08:01:48 PM 33.6472 -99.2942 311° West 430 495 32,000  Level Fort Worth Center
Wed 08:02:50 PM 33.7264 -99.4058 310° West 432 497 32,000  Level Fort Worth Center
Wed 08:03:52 PM 33.8044 -99.5094 312° West 429 494 32,000  Level Fort Worth Center
Wed 08:04:54 PM 33.8825 -99.6175 311° West 429 494 32,000  Level Fort Worth Center
Wed 08:05:57 PM 33.9611 -99.7283 311° West 430 495 32,000  Level Fort Worth Center
Wed 08:06:59 PM 34.0547 -99.8581 311° West 430 495 32,000  Level Fort Worth Center
Wed 08:08:01 PM 34.1328 -99.9672 311° West 430 495 32,000  Level Fort Worth Center
Wed 08:09:03 PM 34.2106 -100.0764 311° West 430 495 32,000  Level Fort Worth Center
Wed 08:10:05 PM 34.2878 -100.1850 311° West 429 494 32,000  Level Fort Worth Center
Wed 08:11:07 PM 34.3772 -100.3161 310° West 429 494 32,000  Level Fort Worth Center
Wed 08:12:09 PM 34.4558 -100.4261 311° West 430 495 32,000  Level Fort Worth Center
Wed 08:13:11 PM 34.5372 -100.5397 311° West 432 497 32,000  Level Fort Worth Center
Wed 08:14:13 PM 34.6128 -100.6481 310° West 432 497 32,000  Level Fort Worth Center
Wed 08:15:20 PM 34.7042 -100.7814 310° West 432 497 32,000  Level Albuquerque Center
Wed 08:16:22 PM 34.7819 -100.8933 310° West 432 497 32,000  Level Albuquerque Center
Wed 08:17:24 PM 34.8594 -101.0044 310° West 432 497 32,000  Level Albuquerque Center
Wed 08:18:26 PM 34.9350 -101.1150 310° West 431 496 32,000  Level Albuquerque Center
Wed 08:19:27 PM 35.0111 -101.2261 310° West 429 494 32,000  Level Albuquerque Center
Wed 08:20:29 PM 35.0925 -101.3444 310° West 429 494 32,000  Level Albuquerque Center
Wed 08:21:31 PM 35.1703 -101.4564 310° West 429 494 32,000  Level Albuquerque Center
Wed 08:22:33 PM 35.2450 -101.5681 309° West 429 494 32,000  Level Albuquerque Center
Wed 08:23:34 PM 35.3294 -101.6917 310° West 426 490 32,000  Level Albuquerque Center
Wed 08:24:36 PM 35.4056 -101.8036 310° West 426 490 32,000  Level Albuquerque Center
Wed 08:25:38 PM 35.4819 -101.9161 310° West 425 489 32,000  Level Albuquerque Center
Wed 08:26:40 PM 35.5600 -102.0392 308° West 425 489 32,000  Level Albuquerque Center
Wed 08:27:41 PM 35.6358 -102.1508 310° West 425 489 32,000  Level Albuquerque Center
Wed 08:28:43 PM 35.7100 -102.2631 309° West 425 489 32,000  Level Albuquerque Center
Wed 08:29:45 PM 35.7856 -102.3742 310° West 425 489 32,000  Level Albuquerque Center
Wed 08:30:46 PM 35.8586 -102.4858 309° West 421 484 32,000  Level Albuquerque Center
Wed 08:31:48 PM 35.9328 -102.5983 309° West 421 484 32,000  Level Albuquerque Center
Wed 08:32:50 PM 36.0222 -102.7342 309° West 422 486 32,000  Level Albuquerque Center
Wed 08:33:51 PM 36.0967 -102.8478 309° West 423 487 32,000  Level Albuquerque Center
Wed 08:34:53 PM 36.1683 -102.9558 309° West 423 487 32,000  Level Albuquerque Center
Wed 08:35:55 PM 36.2425 -103.0706 309° West 424 488 32,000  Level Albuquerque Center
Wed 08:36:57 PM 36.3294 -103.2064 308° West 425 489 32,000  Level Albuquerque Center
Wed 08:37:58 PM 36.4064 -103.3264 309° West 434 499 32,000  Level Albuquerque Center
Wed 08:39:00 PM 36.4819 -103.4425 309° West 433 498 32,000  Level Albuquerque Center
Wed 08:40:02 PM 36.5556 -103.5578 309° West 429 494 32,000  Level Albuquerque Center
Wed 08:41:03 PM 36.6306 -103.6764 308° West 429 494 32,000  Level Albuquerque Center
Wed 08:42:05 PM 36.7025 -103.7886 309° West 431 496 32,000  Level Albuquerque Center
Wed 08:43:07 PM 36.7831 -103.9153 308° West 423 487 32,000  Level Albuquerque Center
Wed 08:44:08 PM 36.8547 -104.0267 309° West 424 488 32,000  Level Albuquerque Center
Wed 08:45:10 PM 36.9358 -104.1539 309° West 423 487 32,000  Level Albuquerque Center
Wed 08:46:12 PM 37.0056 -104.2644 308° West 423 487 32,000  Level Albuquerque Center
Wed 08:47:14 PM 37.0861 -104.3936 308° West 422 486 32,000  Level Albuquerque Center
Wed 08:48:15 PM 37.1569 -104.5058 308° West 422 486 32,000  Level Albuquerque Center
Wed 08:49:17 PM 37.2253 -104.6150 308° West 421 484 32,000  Level Albuquerque Center
Wed 08:50:19 PM 37.3056 -104.7464 308° West 420 483 32,000  Level Albuquerque Center
Wed 08:51:34 PM 37.3842 -104.8772 307° West 420 483 32,000  Level Denver Center
Wed 08:52:35 PM 37.4650 -105.0086 308° West 422 486 32,000  Level Denver Center
Wed 08:53:37 PM 37.5361 -105.1233 308° West 426 490 32,000  Level Denver Center
Wed 08:54:39 PM 37.6167 -105.2539 308° West 426 490 32,000  Level Denver Center
Wed 08:55:41 PM 37.6806 -105.3622 307° West 409 471 32,000  Level Denver Center
Wed 08:56:43 PM 37.7578 -105.4872 308° West 402 463 32,000  Level Denver Center
Wed 08:57:44 PM 37.8225 -105.5956 307° West 403 464 32,000  Level Denver Center
Wed 08:58:46 PM 37.8992 -105.7219 308° West 404 465 32,000  Level Denver Center
Wed 08:59:48 PM 37.9669 -105.8336 308° West 414 476 32,000  Level Denver Center
Wed 09:00:50 PM 38.0333 -105.9444 307° West 413 475 32,000  Level Denver Center
Wed 09:01:52 PM 38.1106 -106.0756 307° West 414 476 32,000  Level Denver Center
Wed 09:02:54 PM 38.1728 -106.1806 307° West 416 479 32,000  Level Denver Center
Wed 09:03:55 PM 38.2428 -106.2992 307° West 417 480 32,000  Level Denver Center
Wed 09:04:57 PM 38.3267 -106.4414 307° West 417 480 32,000  Level Denver Center
Wed 09:05:59 PM 38.3950 -106.5578 307° West 413 475 32,000  Level Denver Center
Wed 09:07:01 PM 38.4636 -106.6744 307° West 409 471 32,000  Level Denver Center
Wed 09:08:03 PM 38.5311 -106.7917 306° West 409 471 32,000  Level Denver Center
Wed 09:09:04 PM 38.6000 -106.9103 307° West 410 472 32,000  Level Denver Center
Wed 09:10:06 PM 38.6678 -107.0286 306° West 411 473 32,000  Level Denver Center
Wed 09:11:08 PM 38.7369 -107.1503 306° West 413 475 32,000  Level Denver Center
Wed 09:12:10 PM 38.8183 -107.2925 306° West 412 474 32,000  Level Denver Center
Wed 09:13:12 PM 38.8831 -107.4072 306° West 412 474 32,000  Level Denver Center
Wed 09:14:14 PM 38.9483 -107.5239 306° West 417 480 32,000  Level Denver Center
Wed 09:15:15 PM 39.0258 -107.6581 307° West 416 479 32,000  Level Denver Center
Wed 09:16:17 PM 39.0911 -107.7731 306° West 417 480 32,000  Level Denver Center
Wed 09:17:32 PM 39.1781 -107.9278 306° West 417 480 32,000  Level Denver Center
Wed 09:18:33 PM 39.2428 -108.0431 306° West 415 478 32,000  Level Denver Center
Wed 09:19:35 PM 39.3189 -108.1792 306° West 418 481 32,000  Level Denver Center
Wed 09:20:37 PM 39.3856 -108.2978 306° West 425 489 32,000  Level Denver Center
Wed 09:21:39 PM 39.4622 -108.4367 306° West 423 487 32,000  Level Denver Center
Wed 09:22:41 PM 39.5286 -108.5564 306° West 424 488 32,000  Level Denver Center
Wed 09:23:43 PM 39.6056 -108.6967 305° West 428 493 32,000  Level Denver Center
Wed 09:24:45 PM 39.6778 -108.8292 305° West 430 495 32,000  Level Denver Center
Wed 09:25:47 PM 39.7436 -108.9517 305° West 434 499 32,000  Level Denver Center
Wed 09:27:00 PM 39.8214 -109.0953 305° West 433 498 32,000  Level Denver Center
Wed 09:27:46 PM 39.8878 -109.2189 305° West 433 498 32,000  Level Salt Lake Center
Wed 09:28:47 PM 39.9539 -109.3431 305° West 434 499 32,000  Level Salt Lake Center
Wed 09:29:49 PM 40.0217 -109.4672 306° West 436 502 32,000  Level Salt Lake Center
Wed 09:30:50 PM 40.0981 -109.6128 304° West 436 502 32,000  Level Salt Lake Center
Wed 09:31:51 PM 40.1642 -109.7356 305° West 433 498 32,000  Level Salt Lake Center
Wed 09:32:52 PM 40.2283 -109.8592 304° West 428 493 32,000  Level Salt Lake Center
Wed 09:33:54 PM 40.3028 -110.0011 305° West 426 490 32,000  Level Salt Lake Center
Wed 09:34:55 PM 40.3675 -110.1253 304° West 428 493 32,000  Level Salt Lake Center
Wed 09:35:56 PM 40.4450 -110.2694 305° West 430 495 32,000  Level Salt Lake Center
Wed 09:36:58 PM 40.5092 -110.3950 304° West 431 496 32,000  Level Salt Lake Center
Wed 09:37:59 PM 40.5803 -110.5328 304° West 432 497 32,000  Level Salt Lake Center
Wed 09:39:00 PM 40.6522 -110.6711 304° West 437 503 32,000  Level Salt Lake Center
Wed 09:40:02 PM 40.7197 -110.8022 304° West 436 502 32,000  Level Salt Lake Center
Wed 09:41:03 PM 40.7858 -110.9333 304° West 434 499 32,000  Level Salt Lake Center
Wed 09:42:04 PM 40.8531 -111.0650 304° West 434 499 32,000  Level Salt Lake Center
Wed 09:43:06 PM 40.9181 -111.1942 304° West 426 490 32,000  Level Salt Lake Center
Wed 09:44:07 PM 40.9853 -111.3267 304° West 434 499 32,000 49 Level Salt Lake Center
Wed 09:45:08 PM 41.0519 -111.4600 304° West 439 505 32,100 537 Climbing Salt Lake Center
Wed 09:46:10 PM 41.1292 -111.6164 303° West 432 497 33,100 878 Climbing Salt Lake Center
Wed 09:47:11 PM 41.1936 -111.7456 304° West 432 497 33,900 439 Climbing Salt Lake Center
Wed 09:48:13 PM 41.2581 -111.8736 304° West 428 493 34,000 49 Climbing Salt Lake Center
Wed 09:49:14 PM 41.3222 -112.0036 303° West 428 493 34,000  Level Salt Lake Center
Wed 09:50:16 PM 41.3875 -112.1358 303° West 428 493 34,000  Level Salt Lake Center
Wed 09:51:17 PM 41.4531 -112.2681 304° West 429 494 34,000  Level Salt Lake Center
Wed 09:52:19 PM 41.5294 -112.4247 303° West 424 488 34,000  Level Salt Lake Center
Wed 09:53:20 PM 41.5931 -112.5572 303° West 424 488 34,000  Level Salt Lake Center
Wed 09:54:21 PM 41.6567 -112.6897 303° West 425 489 34,000  Level Salt Lake Center
Wed 09:55:23 PM 41.7211 -112.8219 303° West 425 489 34,000  Level Salt Lake Center
Wed 09:56:25 PM 41.7844 -112.9558 302° West 426 490 34,000  Level Salt Lake Center
Wed 09:57:26 PM 41.8486 -113.0908 303° West 428 493 34,000  Level Salt Lake Center
Wed 09:58:28 PM 41.9119 -113.2242 303° West 427 491 34,000  Level Salt Lake Center
Wed 09:59:29 PM 41.9892 -113.3872 303° West 429 494 34,000  Level Salt Lake Center
Wed 10:00:31 PM 42.0528 -113.5233 302° West 430 495 34,000  Level Salt Lake Center
Wed 10:01:32 PM 42.1153 -113.6589 302° West 430 495 34,000  Level Salt Lake Center
Wed 10:02:34 PM 42.1781 -113.7928 302° West 427 491 34,000  Level Salt Lake Center
Wed 10:03:36 PM 42.2397 -113.9267 302° West 423 487 34,000  Level Salt Lake Center
Wed 10:04:37 PM 42.3025 -114.0619 302° West 424 488 34,000  Level Salt Lake Center
Wed 10:05:39 PM 42.3633 -114.2028 300° West 432 497 34,000  Level Salt Lake Center
Wed 10:06:40 PM 42.4256 -114.3422 301° West 435 501 34,000  Level Salt Lake Center
Wed 10:07:42 PM 42.5014 -114.5075 302° West 427 491 34,000  Level Salt Lake Center
Wed 10:08:44 PM 42.5642 -114.6458 302° West 430 495 34,000  Level Salt Lake Center
Wed 10:09:45 PM 42.6256 -114.7836 301° West 429 494 34,000  Level Salt Lake Center
Wed 10:10:47 PM 42.6828 -114.9094 302° West 430 495 34,000  Level Salt Lake Center
Wed 10:11:48 PM 42.7628 -115.0683 304° West 426 490 34,000  Level Salt Lake Center
Wed 10:12:50 PM 42.8289 -115.2058 303° West 431 496 34,000  Level Salt Lake Center
Wed 10:13:52 PM 42.8936 -115.3403 303° West 425 489 34,000  Level Salt Lake Center
Wed 10:14:53 PM 42.9589 -115.4753 303° West 427 491 34,000  Level Salt Lake Center
Wed 10:15:55 PM 43.0233 -115.6117 303° West 427 491 34,000  Level Salt Lake Center
Wed 10:16:57 PM 43.0883 -115.7506 303° West 431 496 34,000  Level Salt Lake Center
Wed 10:17:58 PM 43.1506 -115.8831 303° West 414 476 34,000  Level Salt Lake Center
Wed 10:19:00 PM 43.2139 -116.0175 303° West 418 481 34,000  Level Salt Lake Center
Wed 10:20:01 PM 43.2900 -116.1806 303° West 423 487 34,000  Level Salt Lake Center
Wed 10:21:03 PM 43.3525 -116.3156 303° West 420 483 34,000  Level Salt Lake Center
Wed 10:22:05 PM 43.4147 -116.4517 302° West 420 483 34,000  Level Salt Lake Center
Wed 10:23:07 PM 43.4778 -116.5864 303° West 420 483 34,000  Level Salt Lake Center
Wed 10:24:08 PM 43.5394 -116.7214 302° West 419 482 34,000  Level Salt Lake Center
Wed 10:25:10 PM 43.6008 -116.8564 302° West 418 481 34,000  Level Salt Lake Center
Wed 10:26:12 PM 43.6617 -116.9917 302° West 416 479 34,000  Level Salt Lake Center
Wed 10:27:13 PM 43.7231 -117.1269 302° West 416 479 34,000  Level Salt Lake Center
Wed 10:28:15 PM 43.7967 -117.2897 302° West 415 478 34,000  Level Salt Lake Center
Wed 10:29:17 PM 43.8572 -117.4258 302° West 415 478 34,000  Level Salt Lake Center
Wed 10:30:19 PM 43.9194 -117.5625 302° West 417 480 34,000  Level Salt Lake Center
Wed 10:31:20 PM 43.9786 -117.6994 301° West 416 479 34,000  Level Salt Lake Center
Wed 10:32:22 PM 44.0389 -117.8369 301° West 416 479 34,000  Level Salt Lake Center
Wed 10:33:24 PM 44.0997 -117.9717 302° West 415 478 34,000  Level Salt Lake Center
Wed 10:34:05 PM 44.1483 -118.0806 302° West 416 479 34,000  Level Seattle Center
Wed 10:35:06 PM 44.2011 -118.2050 301° West 416 479 34,000  Level Seattle Center
Wed 10:36:07 PM 44.2608 -118.3411 302° West 415 478 34,000  Level Seattle Center
Wed 10:37:08 PM 44.3197 -118.4783 301° West 415 478 34,000  Level Seattle Center
Wed 10:38:08 PM 44.3783 -118.6156 301° West 415 478 34,000  Level Seattle Center
Wed 10:39:09 PM 44.4381 -118.7522 302° West 415 478 34,000 -295 Level Seattle Center
Wed 10:40:10 PM 44.4939 -118.8892 300° West 412 474 33,400 -984 Descending Seattle Center
Wed 10:41:11 PM 44.5639 -119.0550 301° West 412 474 32,000 -689 Descending Seattle Center
Wed 10:42:12 PM 44.6253 -119.1950 302° West 417 480 32,000  Level Seattle Center
Wed 10:43:13 PM 44.6828 -119.3350 300° West 417 480 32,000  Level Seattle Center
Wed 10:44:13 PM 44.7414 -119.4747 301° West 417 480 32,000  Level Seattle Center
Wed 10:45:14 PM 44.7992 -119.6150 300° West 416 479 32,000  Level Seattle Center
Wed 10:46:15 PM 44.8578 -119.7561 300° West 416 479 32,000 -49 Level Seattle Center
Wed 10:47:16 PM 44.9156 -119.8967 300° West 416 479 31,900 -885 Descending Seattle Center
Wed 10:48:17 PM 44.9781 -120.0508 300° West 417 480 30,200 -1,636 Descending Seattle Center
Wed 10:49:17 PM 45.0353 -120.1942 300° West 417 480 28,600 -1,537 Descending Seattle Center
Wed 10:50:18 PM 45.0919 -120.3339 300° West 413 475 27,100 -1,475 Descending Seattle Center
Wed 10:51:19 PM 45.1467 -120.4703 300° West 403 464 25,600 -1,918 Descending Seattle Center
Wed 10:52:20 PM 45.1972 -120.5983 299° West 378 435 23,200 -2,410 Descending Seattle Center
Wed 10:53:21 PM 45.2467 -120.7275 299° West 373 429 20,700 -2,231 Descending Seattle Center
Wed 10:54:21 PM 45.2953 -120.8539 299° West 370 426 18,700 -1,736 Descending Seattle Center
Wed 10:55:22 PM 45.3411 -120.9747 298° West 350 403 17,200 -1,082 Descending Seattle Center
Wed 10:56:23 PM 45.3875 -121.0950 299° West 349 402 16,500 -590 Descending Seattle Center
Wed 10:57:24 PM 45.4300 -121.2103 298° West 333 383 16,000 -1,046 Descending Seattle Center
Wed 10:58:12 PM 45.4519 -121.3289 285° West 329 379 14,600 -1,475 Descending Seattle Center
Wed 10:58:25 PM 45.4533 -121.3364 285° West 330 380 14,500 -1,469 Descending Seattle Center
Wed 10:59:01 PM 45.4714 -121.4194 287° West 318 366 13,400 -1,574 Descending Seattle Center
Wed 10:59:26 PM 45.4772 -121.4575 282° West 319 367 12,900 -1,823 Descending Seattle Center
Wed 11:00:20 PM 45.5031 -121.5792 287° West 317 365 11,000 -1,526 Descending Seattle Center
Wed 11:01:20 PM 45.5261 -121.6992 285° West 297 342 10,000 -874 Descending Seattle Center
Wed 11:02:03 PM 45.5306 -121.7717 275° West 264 304 9,500 -706 Descending Seattle Center
Wed 11:02:28 PM 45.5336 -121.8114 276° West 267 307 9,200 -411 Descending Seattle Center
Wed 11:03:16 PM 45.5356 -121.8994 272° West 258 297 9,000 -197 Descending Seattle Center
Wed 11:03:29 PM 45.5361 -121.9225 272° West 264 304 9,000  Level Seattle Center
Wed 11:04:04 PM 45.5408 -121.9775 277° West 263 303 9,000  Level Seattle Center
Wed 11:04:30 PM 45.5528 -122.0233 290° West 264 304 9,000  Level Seattle Center
Wed 11:05:11 PM 45.5669 -122.0931 286° West 267 307 9,000  Level Seattle Center
Wed 11:05:31 PM 45.5739 -122.1244 288° West 264 304 9,000  Level Seattle Center
Wed 11:06:12 PM 45.5875 -122.1928 286° West 263 303 9,000  Level Seattle Center
Wed 11:06:31 PM 45.5944 -122.2233 288° West 264 304 9,000 -273 Level Seattle Center
Wed 11:07:18 PM 45.6097 -122.3011 286° West 263 303 8,700 -590 Descending Seattle Center
Wed 11:07:32 PM 45.6150 -122.3233 289° West 264 304 8,400 -1,082 Descending Seattle Center
Wed 11:08:19 PM 45.6300 -122.4008 285° West 262 302 7,600 -1,082 Descending Seattle Center
Wed 11:08:33 PM 45.6361 -122.4281 288° West 259 298 7,300 -1,000 Descending Seattle Center
Wed 11:09:25 PM 45.6569 -122.5011 292° West 239 275 6,500 -1,221 Descending Seattle Center
Wed 11:10:26 PM 45.6867 -122.5847 297° West 233 268 5,000 -1,212 Descending Seattle Center
Wed 11:11:09 PM 45.7075 -122.6442 297° West 215 247 4,400 -870 Descending Seattle Center
Wed 11:11:35 PM 45.7189 -122.6725 300° West 220 253 4,000 -1,279 Descending Seattle Center
Wed 11:12:10 PM 45.7256 -122.7233 281° West 211 243 3,100 -984 Descending Seattle Center
Wed 11:12:36 PM 45.7319 -122.7608 284° West 214 246 3,000 -111 Descending Seattle Center
Wed 11:13:04 PM 45.7336 -122.7972 274° West 208 239 3,000  Level Seattle Center
Wed 11:13:37 PM 45.7139 -122.8233 223° Southwest 199 229 3,000  Level Seattle Center
Wed 11:14:11 PM 45.6892 -122.8339 197° South 169 194 3,000  Level Seattle Center
Wed 11:14:38 PM 45.6703 -122.8186 151° Southeast 178 205 3,000 -295 Level Seattle Center
Wed 11:15:12 PM 45.6581 -122.7878 120° Southeast 170 196 2,700 -689 Descending Seattle Center
Wed 11:15:39 PM 45.6486 -122.7603 116° Southeast 171 197 2,300 -885 Descending Seattle Center
Wed 11:16:13 PM 45.6350 -122.7261 120° Southeast 160 184 1,800 -885 Descending Seattle Center
Wed 11:16:40 PM 45.6267 -122.7042 118° Southeast 153 176 1,400 -778 Descending Seattle Center
Wed 11:17:07 PM 45.6206 -122.6858 115° Southeast 141 162 1,100 -800 Descending Seattle Center
Wed 11:17:40 PM 45.6081 -122.6558 121° Southeast 144 166 600 -806 Descending Seattle Center
Wed 11:18:14 PM 45.5983 -122.6300 118° Southeast 140 161 200 -706 Descending Seattle Center

Login

Don't have an account? Register now (free) for customized features, flight alerts, and more!